Terminal Aerodrome Forecast
Issued by NWS

Current Version | Previous Version | Text Only | Print | Product List | Glossary Off
Versions: 1 2 3 4 5 6 7 8 9 10 11 12 13 14 15 16 17 18 19 20 21 22

000
FTUS41 KRLX 022344
TAFCKB
TAF
KCKB 022344Z 0300/0324 VRB03KT P6SM BKN090
     FM030700 00000KT 4SM BR BKN070
     FM030900 00000KT 1/2SM FG BKN001 BKN080
     FM031300 00000KT 3SM BR SCT001 BKN080
     FM031400 09003KT 6SM HZ BKN080
     FM031700 06003KT P6SM OVC050
     FM031900 10004KT 5SM -SHRA BR OVC035
     FM032100 00000KT 3SM -SHRA BR OVC025=

USA.gov is the U.S. government's official web portal to all federal, state and local government web resources and services.